Terminal Aerodrome Forecast
Issued by NWS Charleston, WV

Current Version | Previous Version | Text Only | Print | Product List | Glossary Off
Versions: 1 2 3 4 5 6 7 8 9 10 11 12 13 14 15 16 17 18 19 20 21 22 23 24 25

000
FTUS41 KRLX 231000 AAA
TAFEKN
TAF AMD
KEKN 231036Z 2311/2406 31011KT P6SM BKN040
     FM231600 31011G20KT P6SM BKN045
     FM231800 31011G20KT P6SM SCT045
     FM232100 31010G18KT P6SM SKC
     FM232300 31006KT P6SM SKC
     FM240100 00000KT P6SM SKC=

USA.gov is the U.S. government's official web portal to all federal, state and local government web resources and services.